Time;durP1;ratioP1;P1;durP2;ratioP2;P2;SDS_P1;SDS_P2;PMS_P1;PMS_P2;Temp;Humidity;BMP_temperature;BMP_pressure;BME280_temperature;BME280_humidity;BME280_pressure;Samples;Min_cycle;Max_cycle;Signal;HPM_P1;HPM_P2
2021/06/29 00:00:33;;;;;;;9.23;8.45;;;;;;;;;;5094981;28;20020;-80
2021/06/29 00:03:01;;;;;;;9.80;8.93;;;;;;;;;;5094899;28;20024;-80
2021/06/29 00:05:27;;;;;;;9.60;8.70;;;;;;;;;;5094960;28;20039;-80
2021/06/29 00:07:53;;;;;;;10.57;9.57;;;;;;;;;;5095094;28;20084;-80
2021/06/29 00:10:19;;;;;;;9.95;8.93;;;;;;;;;;5095024;28;20020;-80
2021/06/29 00:12:45;;;;;;;8.77;7.97;;;;;;;;;;5094508;28;20031;-80
2021/06/29 00:15:12;;;;;;;9.32;8.43;;;;;;;;;;5094428;28;20510;-80
2021/06/29 00:17:38;;;;;;;9.45;8.40;;;;;;;;;;5095350;28;20111;-80
2021/06/29 00:20:04;;;;;;;11.48;9.63;;;;;;;;;;5094723;28;20017;-80
2021/06/29 00:22:30;;;;;;;12.05;7.97;;;;;;;;;;5094473;28;20027;-80
2021/06/29 00:24:56;;;;;;;9.80;9.00;;;;;;;;;;5094939;28;20024;-80
2021/06/29 00:27:22;;;;;;;8.32;7.63;;;;;;;;;;5094156;28;20119;-80
2021/06/29 00:29:48;;;;;;;10.73;9.10;;;;;;;;;;5094556;28;20024;-79
2021/06/29 00:32:14;;;;;;;11.07;10.02;;;;;;;;;;5094435;28;20028;-79
2021/06/29 00:34:41;;;;;;;10.55;9.60;;;;;;;;;;5094651;28;20028;-79
2021/06/29 00:37:07;;;;;;;9.90;9.00;;;;;;;;;;5094354;28;20024;-80
2021/06/29 00:39:33;;;;;;;10.48;9.45;;;;;;;;;;5094394;28;20415;-79
2021/06/29 00:41:59;;;;;;;10.63;9.63;;;;;;;;;;5094495;28;20043;-80
2021/06/29 00:44:25;;;;;;;11.40;8.57;;;;;;;;;;5094215;28;20024;-80
2021/06/29 00:46:53;;;;;;;10.10;9.05;;;;;;;;;;5094618;28;20123;-80
2021/06/29 00:49:19;;;;;;;10.18;9.27;;;;;;;;;;5094288;28;20059;-80
2021/06/29 00:51:45;;;;;;;10.38;9.48;;;;;;;;;;5094311;28;20044;-80
2021/06/29 00:54:13;;;;;;;12.93;9.48;;;;;;;;;;5094122;28;20416;-80
2021/06/29 00:56:39;;;;;;;9.70;8.50;;;;;;;;;;5094093;28;20024;-80
2021/06/29 00:59:05;;;;;;;9.63;8.73;;;;;;;;;;5094073;28;20028;-79
2021/06/29 01:01:31;;;;;;;10.05;9.15;;;;;;;;;;5094418;28;20034;-80
2021/06/29 01:03:58;;;;;;;9.75;8.95;;;;;;;;;;5093817;28;20020;-79
2021/06/29 01:06:25;;;;;;;9.82;8.93;;;;;;;;;;5094488;28;20343;-79
2021/06/29 01:08:51;;;;;;;8.95;8.20;;;;;;;;;;5092893;28;20032;-80
2021/06/29 01:11:17;;;;;;;9.85;8.13;;;;;;;;;;5093832;28;20485;-80
2021/06/29 01:13:44;;;;;;;8.95;8.15;;;;;;;;;;5094146;28;20370;-80
2021/06/29 01:16:10;;;;;;;9.60;8.60;;;;;;;;;;5094604;28;20069;-79
2021/06/29 01:18:37;;;;;;;10.07;9.00;;;;;;;;;;5094301;28;20027;-80
2021/06/29 01:21:03;;;;;;;11.30;9.57;;;;;;;;;;5093820;28;20023;-80
2021/06/29 01:23:30;;;;;;;9.80;8.93;;;;;;;;;;5094197;28;20028;-79
2021/06/29 01:26:16;;;;;;;10.50;9.60;;;;;;;;;;5093967;28;20036;-80
2021/06/29 01:28:51;;;;;;;10.00;8.63;;;;;;;;;;5093742;28;20020;-80
2021/06/29 01:31:17;;;;;;;10.57;8.40;;;;;;;;;;5093894;28;20469;-80
2021/06/29 01:33:44;;;;;;;9.63;8.57;;;;;;;;;;5095349;28;20028;-80
2021/06/29 01:36:10;;;;;;;9.32;8.38;;;;;;;;;;5097981;28;20035;-79
2021/06/29 01:38:37;;;;;;;14.27;10.27;;;;;;;;;;5097461;28;20032;-80
2021/06/29 01:41:03;;;;;;;10.45;9.35;;;;;;;;;;5097443;28;20054;-80
2021/06/29 01:43:32;;;;;;;11.10;9.85;;;;;;;;;;5097795;28;20446;-79
2021/06/29 01:45:58;;;;;;;10.20;9.02;;;;;;;;;;5097654;28;20024;-80
2021/06/29 01:48:25;;;;;;;9.55;8.75;;;;;;;;;;5097724;28;20107;-80
2021/06/29 01:50:52;;;;;;;10.45;8.90;;;;;;;;;;5096965;28;20055;-79
2021/06/29 01:53:18;;;;;;;14.65;8.85;;;;;;;;;;5097208;28;20591;-79
2021/06/29 01:55:44;;;;;;;9.52;8.63;;;;;;;;;;5097574;28;20099;-79
2021/06/29 01:58:10;;;;;;;9.30;8.50;;;;;;;;;;5097447;28;20046;-80
2021/06/29 02:00:36;;;;;;;13.82;10.68;;;;;;;;;;5097326;28;20028;-79
2021/06/29 02:03:04;;;;;;;9.63;8.43;;;;;;;;;;5096847;28;20077;-81
2021/06/29 02:05:30;;;;;;;9.23;8.35;;;;;;;;;;5097297;28;20548;-80
2021/06/29 02:07:56;;;;;;;10.52;9.40;;;;;;;;;;5097005;28;20377;-80
2021/06/29 02:10:22;;;;;;;9.35;8.55;;;;;;;;;;5097224;28;20022;-78
2021/06/29 02:12:48;;;;;;;9.95;9.05;;;;;;;;;;5096899;28;20032;-80
2021/06/29 02:15:14;;;;;;;9.63;8.70;;;;;;;;;;5096890;28;20051;-80
2021/06/29 02:17:40;;;;;;;9.45;8.55;;;;;;;;;;5097256;28;20024;-79
2021/06/29 02:20:07;;;;;;;9.98;9.18;;;;;;;;;;5096951;28;20031;-79
2021/06/29 02:22:33;;;;;;;13.02;10.05;;;;;;;;;;5096717;28;20063;-80
2021/06/29 02:24:59;;;;;;;9.88;9.00;;;;;;;;;;5097000;28;20489;-80
2021/06/29 02:27:28;;;;;;;9.23;8.43;;;;;;;;;;5096920;28;20541;-80
2021/06/29 02:29:55;;;;;;;9.48;8.55;;;;;;;;;;5097059;28;20355;-80
2021/06/29 02:32:21;;;;;;;9.98;9.18;;;;;;;;;;5096461;28;20032;-79
2021/06/29 02:34:47;;;;;;;10.80;9.80;;;;;;;;;;5096760;28;20054;-80
2021/06/29 02:37:13;;;;;;;16.35;9.30;;;;;;;;;;5096224;28;20088;-80
2021/06/29 02:39:39;;;;;;;10.20;9.05;;;;;;;;;;5097372;28;20030;-79
2021/06/29 02:42:05;;;;;;;11.38;9.23;;;;;;;;;;5096544;28;20074;-79
2021/06/29 02:44:33;;;;;;;10.00;8.85;;;;;;;;;;5096210;28;20025;-79
2021/06/29 02:46:59;;;;;;;12.27;9.90;;;;;;;;;;5096359;28;20097;-82
2021/06/29 02:49:25;;;;;;;14.07;9.63;;;;;;;;;;5096689;28;20024;-80
2021/06/29 02:51:51;;;;;;;12.85;10.05;;;;;;;;;;5096340;28;20135;-79
2021/06/29 02:54:18;;;;;;;11.13;10.02;;;;;;;;;;5096211;28;20028;-79
2021/06/29 02:56:44;;;;;;;15.32;9.38;;;;;;;;;;5096429;28;20473;-80
2021/06/29 02:59:10;;;;;;;10.90;8.88;;;;;;;;;;5096109;28;20416;-80
2021/06/29 03:01:36;;;;;;;8.55;7.75;;;;;;;;;;5096396;28;20469;-80
2021/06/29 03:04:02;;;;;;;9.98;9.18;;;;;;;;;;5095975;28;20461;-80
2021/06/29 03:06:28;;;;;;;10.15;9.02;;;;;;;;;;5095654;28;20023;-80
2021/06/29 03:08:54;;;;;;;9.27;8.00;;;;;;;;;;5096535;28;20466;-80
2021/06/29 03:11:20;;;;;;;10.48;9.40;;;;;;;;;;5095892;28;20040;-80
2021/06/29 03:13:46;;;;;;;10.35;9.35;;;;;;;;;;5095792;28;20032;-79
2021/06/29 03:16:12;;;;;;;11.18;10.18;;;;;;;;;;5095335;28;20020;-80
2021/06/29 03:18:38;;;;;;;9.88;8.98;;;;;;;;;;5095222;28;20077;-79
2021/06/29 03:21:07;;;;;;;9.25;8.30;;;;;;;;;;5094937;28;20031;-80
2021/06/29 03:23:33;;;;;;;12.57;9.32;;;;;;;;;;5095184;28;20028;-80
2021/06/29 03:25:59;;;;;;;14.13;9.95;;;;;;;;;;5095521;28;20110;-80
2021/06/29 03:28:25;;;;;;;10.20;9.20;;;;;;;;;;5095628;28;20032;-80
2021/06/29 03:30:51;;;;;;;9.43;8.73;;;;;;;;;;5095644;28;20041;-80
2021/06/29 03:33:17;;;;;;;10.50;8.90;;;;;;;;;;5095435;28;20046;-80
2021/06/29 03:35:43;;;;;;;10.52;9.38;;;;;;;;;;5094781;28;20487;-80
2021/06/29 03:38:09;;;;;;;9.85;8.95;;;;;;;;;;5094835;28;20107;-79
2021/06/29 03:40:35;;;;;;;47.47;11.25;;;;;;;;;;5094959;28;20531;-79
2021/06/29 03:43:01;;;;;;;17.30;9.48;;;;;;;;;;5094745;28;20027;-80
2021/06/29 03:45:29;;;;;;;11.35;10.07;;;;;;;;;;5094956;28;20020;-79
2021/06/29 03:47:55;;;;;;;11.45;9.32;;;;;;;;;;5094393;28;20024;-79
2021/06/29 03:50:21;;;;;;;11.48;8.52;;;;;;;;;;5094433;28;20024;-80
2021/06/29 03:52:47;;;;;;;12.20;9.18;;;;;;;;;;5094014;28;20063;-80
2021/06/29 03:55:13;;;;;;;9.18;8.38;;;;;;;;;;5094290;28;20024;-79
2021/06/29 03:57:39;;;;;;;9.90;9.00;;;;;;;;;;5093756;28;20035;-79
2021/06/29 04:00:06;;;;;;;9.50;8.40;;;;;;;;;;5094163;28;20026;-79
2021/06/29 04:02:32;;;;;;;9.80;8.88;;;;;;;;;;5094190;28;20036;-80
2021/06/29 04:04:58;;;;;;;9.82;8.90;;;;;;;;;;5094296;28;20342;-80
2021/06/29 04:07:28;;;;;;;11.05;9.95;;;;;;;;;;5094528;28;20023;-79
2021/06/29 04:09:54;;;;;;;11.95;9.95;;;;;;;;;;5094470;28;20111;-79
2021/06/29 04:12:20;;;;;;;9.73;8.93;;;;;;;;;;5094806;28;20039;-79
2021/06/29 04:14:46;;;;;;;10.55;9.60;;;;;;;;;;5094783;28;20032;-80
2021/06/29 04:17:12;;;;;;;9.88;9.02;;;;;;;;;;5094697;28;20028;-80
2021/06/29 04:19:40;;;;;;;15.43;9.02;;;;;;;;;;5094306;28;20024;-80
2021/06/29 04:22:06;;;;;;;10.40;9.40;;;;;;;;;;5094609;28;20424;-80
2021/06/29 04:24:32;;;;;;;11.02;8.38;;;;;;;;;;5094577;28;20080;-80
2021/06/29 04:26:58;;;;;;;10.73;8.68;;;;;;;;;;5094821;28;20024;-80
2021/06/29 04:29:24;;;;;;;9.48;8.65;;;;;;;;;;5094260;28;20111;-79
2021/06/29 04:31:50;;;;;;;9.80;8.73;;;;;;;;;;5094299;28;20094;-79
2021/06/29 04:34:16;;;;;;;12.35;10.90;;;;;;;;;;5094061;28;20032;-80
2021/06/29 04:36:42;;;;;;;11.80;9.18;;;;;;;;;;5092485;28;20462;-77
2021/06/29 04:39:08;;;;;;;10.93;8.50;;;;;;;;;;5093450;28;20032;-77
2021/06/29 04:41:35;;;;;;;10.52;9.43;;;;;;;;;;5093361;28;20370;-78
2021/06/29 04:44:01;;;;;;;11.23;10.07;;;;;;;;;;5092778;28;20441;-77
2021/06/29 04:46:27;;;;;;;9.85;8.85;;;;;;;;;;5093422;28;20392;-76
2021/06/29 04:48:53;;;;;;;9.48;8.60;;;;;;;;;;5094255;28;20020;-76
2021/06/29 04:51:19;;;;;;;8.57;7.82;;;;;;;;;;5092562;28;20044;-73
2021/06/29 04:53:45;;;;;;;12.95;8.35;;;;;;;;;;5094043;28;20028;-74
2021/06/29 04:56:18;;;;;;;16.65;11.13;;;;;;;;;;5093548;28;20034;-75
2021/06/29 04:58:52;;;;;;;24.88;11.40;;;;;;;;;;5093156;28;20025;-74
2021/06/29 05:01:18;;;;;;;20.45;10.88;;;;;;;;;;5092919;28;20111;-75
2021/06/29 05:03:44;;;;;;;17.23;10.93;;;;;;;;;;5093195;28;20081;-76
2021/06/29 05:06:10;;;;;;;21.77;11.35;;;;;;;;;;5092808;28;20024;-76
2021/06/29 05:08:36;;;;;;;30.02;9.50;;;;;;;;;;5095708;28;20023;-71
2021/06/29 05:11:02;;;;;;;16.40;10.10;;;;;;;;;;5097099;28;20063;-75
2021/06/29 05:13:28;;;;;;;17.23;9.43;;;;;;;;;;5097246;28;20031;-75
2021/06/29 05:15:54;;;;;;;12.57;10.75;;;;;;;;;;5097048;28;20024;-83
2021/06/29 05:18:20;;;;;;;14.27;10.23;;;;;;;;;;5097360;28;20521;-86
2021/06/29 05:20:46;;;;;;;19.00;9.52;;;;;;;;;;5097384;28;20428;-81
2021/06/29 05:23:12;;;;;;;12.93;9.75;;;;;;;;;;5097045;28;20070;-81
2021/06/29 05:25:38;;;;;;;12.75;10.55;;;;;;;;;;5097126;28;20035;-81
2021/06/29 05:28:04;;;;;;;20.52;11.48;;;;;;;;;;5097047;28;20518;-81
2021/06/29 05:30:30;;;;;;;12.15;10.00;;;;;;;;;;5097197;28;20114;-81
2021/06/29 05:32:57;;;;;;;13.07;11.68;;;;;;;;;;5096516;28;20036;-81
2021/06/29 05:35:24;;;;;;;12.35;11.23;;;;;;;;;;5096813;28;20024;-80
2021/06/29 05:37:51;;;;;;;11.20;9.95;;;;;;;;;;5096073;28;20024;-80
2021/06/29 05:40:17;;;;;;;10.75;9.65;;;;;;;;;;5096825;28;20032;-80
2021/06/29 05:42:43;;;;;;;10.48;9.55;;;;;;;;;;5097132;28;20048;-80
2021/06/29 05:45:09;;;;;;;13.57;9.15;;;;;;;;;;5096738;28;20020;-80
2021/06/29 05:47:37;;;;;;;13.10;9.35;;;;;;;;;;5097153;28;20410;-80
2021/06/29 05:50:04;;;;;;;11.00;9.82;;;;;;;;;;5096832;28;20031;-80
2021/06/29 05:52:30;;;;;;;13.10;9.82;;;;;;;;;;5096930;28;20311;-80
2021/06/29 05:54:56;;;;;;;10.50;9.48;;;;;;;;;;5096560;28;20023;-80
2021/06/29 05:57:23;;;;;;;10.38;9.43;;;;;;;;;;5096321;28;20055;-81
2021/06/29 05:59:49;;;;;;;18.30;11.20;;;;;;;;;;5096646;28;20377;-80
2021/06/29 06:02:15;;;;;;;11.65;9.63;;;;;;;;;;5096546;28;20028;-81
2021/06/29 06:04:41;;;;;;;10.90;9.93;;;;;;;;;;5096516;28;20024;-80
2021/06/29 06:07:07;;;;;;;9.85;8.68;;;;;;;;;;5096369;28;20024;-79
2021/06/29 06:09:34;;;;;;;12.93;9.15;;;;;;;;;;5096460;28;20034;-80
2021/06/29 06:12:00;;;;;;;11.07;10.05;;;;;;;;;;5096189;28;20107;-80
2021/06/29 06:14:26;;;;;;;11.93;10.20;;;;;;;;;;5096266;28;20408;-80
2021/06/29 06:16:52;;;;;;;10.43;9.35;;;;;;;;;;5096684;28;20027;-79
2021/06/29 06:19:18;;;;;;;16.45;9.88;;;;;;;;;;5095979;28;20031;-79
2021/06/29 06:21:44;;;;;;;15.20;10.73;;;;;;;;;;5097339;28;20032;-79
2021/06/29 06:24:10;;;;;;;12.52;10.70;;;;;;;;;;5097010;28;20474;-79
2021/06/29 06:26:36;;;;;;;15.27;10.05;;;;;;;;;;5097212;28;20049;-79
2021/06/29 06:29:02;;;;;;;11.65;10.40;;;;;;;;;;5096381;28;20423;-77
2021/06/29 06:31:28;;;;;;;10.88;9.88;;;;;;;;;;5096599;28;20044;-77
2021/06/29 06:33:54;;;;;;;16.52;10.00;;;;;;;;;;5096695;28;20035;-76
2021/06/29 06:36:20;;;;;;;20.73;12.63;;;;;;;;;;5097098;28;20063;-76
2021/06/29 06:38:47;;;;;;;14.00;11.52;;;;;;;;;;5096627;28;20021;-77
2021/06/29 06:41:14;;;;;;;11.00;9.90;;;;;;;;;;5096389;28;20027;-77
2021/06/29 06:43:43;;;;;;;13.63;11.30;;;;;;;;;;5096528;28;20020;-77
2021/06/29 06:46:09;;;;;;;11.13;10.02;;;;;;;;;;5096280;28;20086;-77
2021/06/29 06:48:36;;;;;;;12.52;11.25;;;;;;;;;;5095911;28;20020;-78
2021/06/29 06:51:02;;;;;;;13.68;10.60;;;;;;;;;;5096019;28;20113;-77
2021/06/29 06:53:28;;;;;;;18.45;11.57;;;;;;;;;;5096584;28;20028;-78
2021/06/29 06:55:54;;;;;;;11.88;10.60;;;;;;;;;;5096657;28;20020;-77
2021/06/29 06:58:20;;;;;;;27.20;10.73;;;;;;;;;;5095701;28;20029;-75
2021/06/29 07:00:46;;;;;;;21.30;11.65;;;;;;;;;;5096101;28;20031;-76
2021/06/29 07:03:12;;;;;;;26.00;12.45;;;;;;;;;;5096239;28;20031;-73
2021/06/29 07:05:39;;;;;;;21.60;11.63;;;;;;;;;;5097648;28;20380;-73
2021/06/29 07:08:05;;;;;;;14.63;11.63;;;;;;;;;;5097242;28;20047;-74
2021/06/29 07:10:31;;;;;;;21.25;12.65;;;;;;;;;;5097490;28;20416;-73
2021/06/29 07:12:57;;;;;;;14.13;11.10;;;;;;;;;;5096397;28;20028;-74
2021/06/29 07:15:23;;;;;;;14.18;10.80;;;;;;;;;;5097001;28;20063;-75
2021/06/29 07:17:49;;;;;;;14.73;11.63;;;;;;;;;;5096619;28;20028;-75
2021/06/29 07:20:15;;;;;;;12.68;11.20;;;;;;;;;;5096603;28;20020;-75
2021/06/29 07:22:41;;;;;;;17.95;11.55;;;;;;;;;;5097400;28;20470;-77
2021/06/29 07:25:08;;;;;;;16.77;12.85;;;;;;;;;;5096054;28;20024;-78
2021/06/29 07:27:34;;;;;;;15.07;10.90;;;;;;;;;;5097361;28;20035;-77
2021/06/29 07:30:00;;;;;;;20.17;9.93;;;;;;;;;;5098842;28;20024;-78
2021/06/29 07:32:26;;;;;;;16.10;10.50;;;;;;;;;;5097686;28;20123;-75
2021/06/29 07:34:52;;;;;;;16.17;10.55;;;;;;;;;;5097281;28;20020;-73
2021/06/29 07:37:18;;;;;;;13.95;11.07;;;;;;;;;;5097366;28;20474;-74
2021/06/29 07:39:44;;;;;;;13.02;9.70;;;;;;;;;;5096789;28;20103;-74
2021/06/29 07:42:10;;;;;;;12.27;10.93;;;;;;;;;;5097246;28;20035;-76
2021/06/29 07:44:36;;;;;;;13.02;10.70;;;;;;;;;;5097250;28;20103;-77
2021/06/29 07:47:03;;;;;;;14.93;10.75;;;;;;;;;;5096120;28;20024;-74
2021/06/29 07:49:29;;;;;;;17.17;10.50;;;;;;;;;;5096975;28;20021;-77
2021/06/29 07:51:55;;;;;;;16.33;10.25;;;;;;;;;;5095684;28;20052;-74
2021/06/29 07:54:21;;;;;;;11.13;10.02;;;;;;;;;;5096495;28;20024;-75
2021/06/29 07:56:47;;;;;;;11.27;10.20;;;;;;;;;;5095790;28;20037;-72
2021/06/29 07:59:13;;;;;;;15.35;10.75;;;;;;;;;;5096110;28;20016;-73
2021/06/29 08:01:39;;;;;;;19.58;10.38;;;;;;;;;;5095807;28;20154;-74
2021/06/29 08:04:05;;;;;;;11.55;10.48;;;;;;;;;;5097666;28;20028;-73
2021/06/29 08:06:31;;;;;;;16.75;11.13;;;;;;;;;;5096668;28;20028;-75
2021/06/29 08:08:57;;;;;;;12.25;11.07;;;;;;;;;;5095691;28;20392;-74
2021/06/29 08:11:23;;;;;;;15.82;10.35;;;;;;;;;;5094925;28;20089;-75
2021/06/29 08:13:50;;;;;;;11.40;9.65;;;;;;;;;;5095851;28;20111;-74
2021/06/29 08:16:16;;;;;;;10.98;9.80;;;;;;;;;;5095793;28;20384;-77
2021/06/29 08:18:42;;;;;;;10.88;9.60;;;;;;;;;;5096205;28;20032;-72
2021/06/29 08:21:08;;;;;;;10.15;9.10;;;;;;;;;;5095268;28;20420;-73
2021/06/29 08:23:34;;;;;;;12.32;9.98;;;;;;;;;;5095085;28;20103;-74
2021/06/29 08:26:00;;;;;;;11.15;9.77;;;;;;;;;;5095439;28;20049;-76
2021/06/29 08:28:26;;;;;;;11.77;10.68;;;;;;;;;;5096257;28;20062;-75
2021/06/29 08:30:52;;;;;;;8.55;7.65;;;;;;;;;;5096409;28;20031;-77
2021/06/29 08:33:21;;;;;;;10.48;9.40;;;;;;;;;;5096652;28;20078;-75
2021/06/29 08:35:47;;;;;;;18.05;9.48;;;;;;;;;;5095359;28;20466;-75
2021/06/29 08:38:14;;;;;;;11.00;9.75;;;;;;;;;;5094682;28;20069;-75
2021/06/29 08:40:40;;;;;;;11.23;10.13;;;;;;;;;;5094428;28;20034;-75
2021/06/29 08:43:06;;;;;;;10.90;9.23;;;;;;;;;;5093235;28;20498;-76
2021/06/29 08:45:33;;;;;;;12.45;10.05;;;;;;;;;;5094339;28;20024;-74
2021/06/29 08:47:59;;;;;;;10.15;9.23;;;;;;;;;;5094437;28;20107;-75
2021/06/29 08:50:29;;;;;;;10.63;9.52;;;;;;;;;;5094508;28;20610;-75
2021/06/29 08:52:55;;;;;;;10.25;9.27;;;;;;;;;;5094395;28;20055;-75
2021/06/29 08:55:23;;;;;;;10.25;9.23;;;;;;;;;;5093460;28;20093;-76
2021/06/29 08:57:49;;;;;;;10.50;8.68;;;;;;;;;;5094248;28;20457;-75
2021/06/29 09:00:15;;;;;;;10.13;9.23;;;;;;;;;;5094205;28;20416;-75
2021/06/29 09:02:42;;;;;;;9.25;8.32;;;;;;;;;;5094251;28;20034;-75
2021/06/29 09:05:28;;;;;;;8.82;8.00;;;;;;;;;;5094124;28;20103;-75
2021/06/29 09:08:13;;;;;;;11.18;10.05;;;;;;;;;;5093345;28;20036;-75
2021/06/29 09:10:40;;;;;;;14.90;8.88;;;;;;;;;;5093463;28;20073;-75
2021/06/29 09:13:06;;;;;;;10.30;8.70;;;;;;;;;;5094146;28;20466;-75
2021/06/29 09:15:37;;;;;;;10.35;9.35;;;;;;;;;;5094068;28;20027;-76
2021/06/29 09:18:17;;;;;;;8.75;7.57;;;;;;;;;;5094409;28;20487;-76
2021/06/29 09:21:03;;;;;;;8.82;8.00;;;;;;;;;;5093758;28;20035;-75
2021/06/29 09:23:30;;;;;;;9.73;7.82;;;;;;;;;;5093223;28;20024;-73
2021/06/29 09:25:58;;;;;;;10.13;8.93;;;;;;;;;;5094059;28;20099;-76
2021/06/29 09:28:29;;;;;;;9.63;8.55;;;;;;;;;;5094023;28;20466;-76
2021/06/29 09:30:55;;;;;;;8.43;7.53;;;;;;;;;;5094015;28;20047;-76
2021/06/29 09:33:26;;;;;;;11.60;7.53;;;;;;;;;;5093684;28;20043;-76
2021/06/29 09:35:53;;;;;;;10.90;7.72;;;;;;;;;;5094529;28;20030;-76
2021/06/29 09:38:21;;;;;;;8.30;7.38;;;;;;;;;;5093843;28;20493;-76
2021/06/29 09:40:53;;;;;;;9.18;8.27;;;;;;;;;;5093763;28;20032;-76
2021/06/29 09:43:20;;;;;;;8.75;7.95;;;;;;;;;;5093251;28;20025;-76
2021/06/29 09:45:48;;;;;;;10.32;7.80;;;;;;;;;;5093351;28;20028;-76
2021/06/29 09:48:14;;;;;;;11.02;8.18;;;;;;;;;;5094112;28;20039;-76
2021/06/29 09:50:46;;;;;;;13.80;9.88;;;;;;;;;;5093283;28;20505;-76
2021/06/29 09:53:31;;;;;;;39.92;16.48;;;;;;;;;;5093526;28;20043;-76
2021/06/29 09:55:58;;;;;;;52.03;17.85;;;;;;;;;;5097130;28;20362;-76
2021/06/29 09:58:24;;;;;;;49.63;19.77;;;;;;;;;;5097502;28;20111;-76
2021/06/29 10:00:52;;;;;;;43.42;20.65;;;;;;;;;;5097854;28;20465;-76
2021/06/29 10:03:19;;;;;;;37.85;16.85;;;;;;;;;;5097269;28;20036;-77
2021/06/29 10:05:45;;;;;;;39.35;16.80;;;;;;;;;;5097391;28;20024;-77
2021/06/29 10:08:11;;;;;;;42.50;16.88;;;;;;;;;;5097376;28;20031;-75
2021/06/29 10:10:37;;;;;;;36.92;16.63;;;;;;;;;;5097221;28;20020;-76
2021/06/29 10:13:18;;;;;;;29.80;15.23;;;;;;;;;;5096816;28;20898;-77
2021/06/29 10:15:44;;;;;;;32.65;13.70;;;;;;;;;;5097614;28;20055;-76
2021/06/29 10:18:10;;;;;;;30.65;14.60;;;;;;;;;;5097448;28;20051;-76
2021/06/29 10:20:49;;;;;;;36.00;12.75;;;;;;;;;;5096106;28;20016;-77
2021/06/29 10:23:16;;;;;;;20.48;12.82;;;;;;;;;;5095412;28;20050;-75
2021/06/29 10:25:43;;;;;;;30.10;13.98;;;;;;;;;;5095796;28;20446;-75
2021/06/29 10:28:09;;;;;;;29.15;12.48;;;;;;;;;;5095636;28;20481;-74
2021/06/29 10:30:35;;;;;;;22.35;11.35;;;;;;;;;;5095779;28;20469;-75
2021/06/29 10:33:03;;;;;;;22.95;12.68;;;;;;;;;;5095823;28;20044;-73
2021/06/29 10:35:29;;;;;;;24.27;11.75;;;;;;;;;;5095398;28;20382;-74
2021/06/29 10:37:55;;;;;;;19.58;10.98;;;;;;;;;;5093389;28;20050;-74
2021/06/29 10:40:21;;;;;;;18.73;11.55;;;;;;;;;;5095735;28;20516;-75
2021/06/29 10:42:48;;;;;;;16.30;9.40;;;;;;;;;;5095722;28;20020;-74
2021/06/29 10:45:14;;;;;;;22.40;10.90;;;;;;;;;;5095914;28;20020;-73
2021/06/29 10:47:40;;;;;;;14.43;10.10;;;;;;;;;;5095764;28;20373;-77
2021/06/29 10:50:14;;;;;;;25.25;12.05;;;;;;;;;;5095237;28;20024;-76
2021/06/29 10:52:40;;;;;;;43.38;12.32;;;;;;;;;;5094713;28;20059;-74
2021/06/29 10:55:22;;;;;;;14.35;9.60;;;;;;;;;;5095324;28;20039;-73
2021/06/29 10:57:49;;;;;;;16.25;10.40;;;;;;;;;;5093004;28;20051;-74
2021/06/29 11:00:31;;;;;;;14.73;9.75;;;;;;;;;;5095381;28;20020;-75
2021/06/29 11:03:00;;;;;;;11.45;8.90;;;;;;;;;;5094495;28;20035;-76
2021/06/29 11:05:28;;;;;;;22.00;10.07;;;;;;;;;;5092259;28;20051;-73
2021/06/29 11:08:13;;;;;;;13.80;10.27;;;;;;;;;;5095262;28;20024;-75
2021/06/29 11:10:41;;;;;;;16.02;9.18;;;;;;;;;;5093925;28;20121;-71
2021/06/29 11:13:07;;;;;;;16.63;10.25;;;;;;;;;;5092404;28;20374;-73
2021/06/29 11:15:51;;;;;;;14.02;9.30;;;;;;;;;;5094302;28;20052;-74
2021/06/29 11:18:18;;;;;;;13.38;8.73;;;;;;;;;;5093369;28;20470;-71
2021/06/29 11:20:46;;;;;;;11.35;8.88;;;;;;;;;;5094738;28;20016;-73
2021/06/29 11:23:18;;;;;;;13.30;8.75;;;;;;;;;;5094228;28;20024;-71
2021/06/29 11:25:46;;;;;;;12.77;9.40;;;;;;;;;;5094470;28;20078;-75
2021/06/29 11:28:32;;;;;;;17.65;9.20;;;;;;;;;;5094387;28;20059;-75
2021/06/29 11:31:01;;;;;;;20.38;8.88;;;;;;;;;;5095762;28;20046;-73
2021/06/29 11:33:47;;;;;;;11.95;8.90;;;;;;;;;;5097040;28;20040;-71
2021/06/29 11:36:36;;;;;;;16.75;10.57;;;;;;;;;;5079575;28;20461;-74
2021/06/29 11:39:22;;;;;;;12.88;9.95;;;;;;;;;;5094640;28;20023;-74
2021/06/29 11:41:57;;;;;;;14.48;9.68;;;;;;;;;;5095950;28;20023;-74
2021/06/29 11:44:41;;;;;;;19.40;9.98;;;;;;;;;;5095302;28;20046;-77
2021/06/29 11:47:10;;;;;;;15.25;9.68;;;;;;;;;;5095332;28;20020;-74
2021/06/29 11:49:58;;;;;;;9.15;8.00;;;;;;;;;;5092433;28;20020;-73
2021/06/29 11:52:32;;;;;;;10.70;9.63;;;;;;;;;;5094372;28;20055;-74
2021/06/29 11:55:00;;;;;;;10.82;9.02;;;;;;;;;;5095221;28;20114;-72
2021/06/29 11:57:30;;;;;;;11.73;8.65;;;;;;;;;;5095203;28;20100;-72
2021/06/29 11:59:57;;;;;;;9.23;8.32;;;;;;;;;;5095232;28;20039;-71
2021/06/29 12:02:25;;;;;;;9.63;8.60;;;;;;;;;;5094868;28;20020;-74
2021/06/29 12:04:53;;;;;;;11.38;10.27;;;;;;;;;;5094848;28;20028;-73
2021/06/29 12:07:36;;;;;;;9.25;8.32;;;;;;;;;;5094619;28;20024;-74
2021/06/29 12:10:03;;;;;;;10.35;9.38;;;;;;;;;;5094792;28;20020;-75
2021/06/29 12:12:29;;;;;;;18.77;11.50;;;;;;;;;;5094715;28;20075;-72
2021/06/29 12:15:11;;;;;;;10.15;9.20;;;;;;;;;;5095197;28;20414;-72
2021/06/29 12:17:42;;;;;;;9.15;7.88;;;;;;;;;;5094701;28;20027;-74
2021/06/29 12:20:09;;;;;;;15.60;8.68;;;;;;;;;;5095465;28;20355;-77
2021/06/29 12:22:36;;;;;;;10.18;9.27;;;;;;;;;;5098034;28;20020;-77
2021/06/29 12:25:03;;;;;;;12.05;8.60;;;;;;;;;;5092713;28;20031;-75
2021/06/29 12:27:29;;;;;;;12.23;10.65;;;;;;;;;;5094463;28;20504;-72
2021/06/29 12:29:55;;;;;;;9.88;8.88;;;;;;;;;;5093368;28;20106;-73
2021/06/29 12:32:23;;;;;;;11.25;10.10;;;;;;;;;;5094521;28;20032;-73
2021/06/29 12:35:11;;;;;;;14.63;10.10;;;;;;;;;;5093779;28;20370;-73
2021/06/29 12:37:57;;;;;;;30.45;11.20;;;;;;;;;;5095720;28;20032;-71
2021/06/29 12:40:23;;;;;;;10.48;9.13;;;;;;;;;;5094337;28;20020;-74
2021/06/29 12:42:50;;;;;;;15.00;10.80;;;;;;;;;;5093060;28;20020;-72
2021/06/29 12:45:16;;;;;;;14.10;12.65;;;;;;;;;;5096352;28;20024;-74
2021/06/29 12:47:42;;;;;;;17.05;9.93;;;;;;;;;;5094950;28;20028;-73
2021/06/29 12:50:08;;;;;;;23.45;10.32;;;;;;;;;;5095640;28;20052;-74
2021/06/29 12:52:34;;;;;;;14.00;10.52;;;;;;;;;;5095115;28;20393;-73
2021/06/29 12:55:08;;;;;;;13.68;9.65;;;;;;;;;;5095171;28;20024;-74
2021/06/29 12:57:38;;;;;;;15.50;10.05;;;;;;;;;;5094874;28;20393;-72
2021/06/29 13:00:06;;;;;;;20.35;9.95;;;;;;;;;;5095345;28;20021;-72
2021/06/29 13:02:32;;;;;;;20.60;10.35;;;;;;;;;;5094984;28;20115;-73
2021/06/29 13:05:00;;;;;;;16.00;10.70;;;;;;;;;;5095231;28;20038;-72
2021/06/29 13:07:26;;;;;;;11.48;9.85;;;;;;;;;;5095724;28;20024;-72
2021/06/29 13:09:54;;;;;;;11.00;9.05;;;;;;;;;;5095553;28;20153;-71
2021/06/29 13:12:21;;;;;;;16.30;9.23;;;;;;;;;;5095822;28;20115;-72
2021/06/29 13:14:55;;;;;;;11.68;9.10;;;;;;;;;;5095110;28;20028;-71
2021/06/29 13:17:21;;;;;;;8.77;7.97;;;;;;;;;;5094153;28;20586;-72
2021/06/29 13:19:47;;;;;;;10.88;8.75;;;;;;;;;;5094018;28;20028;-72
2021/06/29 13:22:14;;;;;;;9.40;7.55;;;;;;;;;;5094936;28;20070;-72
2021/06/29 13:24:43;;;;;;;10.13;9.13;;;;;;;;;;5094650;28;20039;-74
2021/06/29 13:27:09;;;;;;;9.43;8.63;;;;;;;;;;5094647;28;20042;-75
2021/06/29 13:29:37;;;;;;;9.63;8.70;;;;;;;;;;5098420;28;20398;-71
2021/06/29 13:32:05;;;;;;;10.68;9.68;;;;;;;;;;5097989;28;20370;-72
2021/06/29 13:34:33;;;;;;;9.55;8.60;;;;;;;;;;5098068;28;20504;-73
2021/06/29 13:37:17;;;;;;;10.07;9.07;;;;;;;;;;5098179;28;20017;-72
2021/06/29 13:39:43;;;;;;;9.88;8.98;;;;;;;;;;5098701;28;20070;-73
2021/06/29 13:42:27;;;;;;;14.13;10.15;;;;;;;;;;5098710;28;20016;-71
2021/06/29 13:44:55;;;;;;;16.00;10.45;;;;;;;;;;5097345;28;20069;-71
2021/06/29 13:47:21;;;;;;;10.93;10.02;;;;;;;;;;5098010;28;20070;-72
2021/06/29 13:50:04;;;;;;;17.85;10.93;;;;;;;;;;5096968;28;20024;-73
2021/06/29 13:52:30;;;;;;;11.57;10.48;;;;;;;;;;5098412;28;20113;-74
2021/06/29 13:55:05;;;;;;;11.65;10.63;;;;;;;;;;5098440;28;20114;-72
2021/06/29 13:57:31;;;;;;;11.05;9.88;;;;;;;;;;5098478;28;20061;-73
2021/06/29 13:59:57;;;;;;;11.63;9.45;;;;;;;;;;5098824;28;20031;-74
2021/06/29 14:02:31;;;;;;;11.10;10.07;;;;;;;;;;5098087;28;20020;-71
2021/06/29 14:04:57;;;;;;;11.27;10.15;;;;;;;;;;5097881;28;20024;-73
2021/06/29 14:07:23;;;;;;;12.48;11.15;;;;;;;;;;5097536;28;20032;-76
2021/06/29 14:09:49;;;;;;;12.40;10.30;;;;;;;;;;5099325;28;20028;-74
2021/06/29 14:12:30;;;;;;;11.30;10.40;;;;;;;;;;5097016;28;20036;-71
2021/06/29 14:15:04;;;;;;;11.15;10.00;;;;;;;;;;5097934;28;20039;-74
2021/06/29 14:17:31;;;;;;;10.68;9.73;;;;;;;;;;5096697;28;20024;-72
2021/06/29 14:19:57;;;;;;;11.30;10.38;;;;;;;;;;5097824;28;20399;-75
2021/06/29 14:22:23;;;;;;;11.82;10.70;;;;;;;;;;5096305;28;20159;-74
2021/06/29 14:24:50;;;;;;;10.95;9.73;;;;;;;;;;5096522;28;20031;-74
2021/06/29 14:27:16;;;;;;;11.82;10.57;;;;;;;;;;5096669;28;20024;-74
2021/06/29 14:29:42;;;;;;;11.63;10.63;;;;;;;;;;5097585;28;20484;-75
2021/06/29 14:32:08;;;;;;;11.48;10.57;;;;;;;;;;5096004;28;20040;-75